createdAt,value
2023-05-06T00:00:02.814Z,1.12
2023-05-06T00:01:02.851Z,1.12
2023-05-06T00:02:02.939Z,1.13
2023-05-06T00:03:03.053Z,1.11
2023-05-06T00:04:03.284Z,1.12
2023-05-06T00:05:03.120Z,1.12
2023-05-06T00:06:03.154Z,1.12
2023-05-06T00:07:03.220Z,1.11
2023-05-06T00:08:03.268Z,1.13
2023-05-06T00:09:03.360Z,1.12
2023-05-06T00:10:03.425Z,1.12
2023-05-06T00:11:03.441Z,1.12
2023-05-06T00:12:03.511Z,1.13
2023-05-06T00:13:03.603Z,1.13
2023-05-06T00:14:03.645Z,1.13
2023-05-06T00:15:03.713Z,1.11
2023-05-06T00:16:03.845Z,1.11
2023-05-06T00:17:03.841Z,1.11
2023-05-06T00:18:03.912Z,1.12
2023-05-06T00:19:03.940Z,1.10
2023-05-06T00:20:04.018Z,1.11
2023-05-06T00:21:04.085Z,1.11
2023-05-06T00:22:04.216Z,1.10
2023-05-06T00:23:04.188Z,1.09
2023-05-06T00:24:04.258Z,1.11
2023-05-06T00:25:04.306Z,1.12
2023-05-06T00:26:04.392Z,1.11
2023-05-06T00:27:04.434Z,1.10
2023-05-06T00:28:04.501Z,1.10
2023-05-06T00:29:04.545Z,1.10
2023-05-06T00:30:04.627Z,1.12
2023-05-06T00:31:04.639Z,1.11
2023-05-06T00:32:04.790Z,1.08
2023-05-06T00:33:04.841Z,1.10
2023-05-06T00:34:04.858Z,1.08
2023-05-06T00:35:04.959Z,1.10
2023-05-06T00:36:04.956Z,1.07
2023-05-06T00:37:05.013Z,1.09
2023-05-06T00:38:05.086Z,1.08
2023-05-06T00:39:05.124Z,1.08
2023-05-06T00:40:05.188Z,1.10
2023-05-06T00:41:05.224Z,1.07
2023-05-06T00:42:05.302Z,1.07
2023-05-06T00:43:05.357Z,1.08
2023-05-06T00:44:05.378Z,1.08
2023-05-06T00:45:05.423Z,1.07
2023-05-06T00:46:05.587Z,1.05
2023-05-06T00:47:05.552Z,1.08
2023-05-06T00:48:05.761Z,1.08
2023-05-06T00:49:05.672Z,1.09
2023-05-06T00:50:05.734Z,1.08
2023-05-06T00:51:05.758Z,1.07
2023-05-06T00:52:05.834Z,1.07
2023-05-06T00:53:05.874Z,1.06
2023-05-06T00:54:06.131Z,1.05
2023-05-06T00:55:06.034Z,1.07
2023-05-06T00:56:06.052Z,1.06
2023-05-06T00:57:06.122Z,1.06
2023-05-06T00:58:06.150Z,1.05
2023-05-06T00:59:06.208Z,1.07
2023-05-06T01:00:06.295Z,1.05
2023-05-06T01:01:06.371Z,1.06
2023-05-06T01:02:06.407Z,1.07
2023-05-06T01:03:06.566Z,1.05
2023-05-06T01:04:06.582Z,1.05
2023-05-06T01:05:06.689Z,1.04
2023-05-06T01:06:06.620Z,1.05
2023-05-06T01:07:06.632Z,1.06
2023-05-06T01:08:06.708Z,1.05
2023-05-06T01:09:06.767Z,1.02
2023-05-06T01:10:06.853Z,1.04
2023-05-06T01:11:06.839Z,1.05
2023-05-06T01:12:06.874Z,1.04
2023-05-06T01:13:06.927Z,1.03
2023-05-06T01:14:06.907Z,1.03
2023-05-06T01:15:07.062Z,1.04
2023-05-06T01:16:06.992Z,1.05
2023-05-06T01:17:07.091Z,1.03
2023-05-06T01:18:07.128Z,1.04
2023-05-06T01:19:07.143Z,1.02
2023-05-06T01:20:07.217Z,1.03
2023-05-06T01:21:07.253Z,1.02
2023-05-06T01:22:07.309Z,1.01
2023-05-06T01:23:07.329Z,1.03
2023-05-06T01:24:07.379Z,1.04
2023-05-06T01:25:07.643Z,1.03
2023-05-06T01:26:07.595Z,1.00
2023-05-06T01:27:07.559Z,1.03
2023-05-06T01:28:07.595Z,1.01
2023-05-06T01:29:07.648Z,1.03
2023-05-06T01:30:07.681Z,1.02
2023-05-06T01:31:07.744Z,1.03
2023-05-06T01:32:07.730Z,1.03
2023-05-06T01:33:07.804Z,1.02
2023-05-06T01:34:07.851Z,1.00
2023-05-06T01:35:08.250Z,0.99
2023-05-06T01:36:07.879Z,1.01
2023-05-06T01:37:07.949Z,1.00
2023-05-06T01:38:07.973Z,1.02
2023-05-06T01:39:07.968Z,1.01
2023-05-06T01:40:08.051Z,1.00
2023-05-06T01:41:08.061Z,1.01
2023-05-06T01:42:08.090Z,1.00
2023-05-06T01:43:08.113Z,1.01
2023-05-06T01:44:08.116Z,1.01
2023-05-06T01:45:08.384Z,1.00
2023-05-06T01:46:08.220Z,0.99
2023-05-06T01:47:08.213Z,0.99
2023-05-06T01:48:08.303Z,1.01
2023-05-06T01:49:08.313Z,0.99
2023-05-06T01:50:08.359Z,1.01
2023-05-06T01:51:08.404Z,0.99
2023-05-06T01:52:08.441Z,0.99
2023-05-06T01:53:08.484Z,0.97
2023-05-06T01:54:08.531Z,0.99
2023-05-06T01:55:08.877Z,0.98
2023-05-06T01:56:08.598Z,0.98
2023-05-06T01:57:08.641Z,1.02
2023-05-06T01:58:08.736Z,1.01
2023-05-06T01:59:08.682Z,0.97
2023-05-06T02:00:08.774Z,0.98
2023-05-06T02:02:08.978Z,0.99
2023-05-06T02:03:08.983Z,0.99
2023-05-06T02:04:08.964Z,0.97
2023-05-06T02:05:09.187Z,0.97
2023-05-06T02:06:08.947Z,0.99
2023-05-06T02:07:08.943Z,0.96
2023-05-06T02:08:08.990Z,0.98
2023-05-06T02:09:08.990Z,0.98
2023-05-06T02:10:09.031Z,0.97
2023-05-06T02:11:09.043Z,0.98
2023-05-06T02:12:09.071Z,0.97
2023-05-06T02:13:09.100Z,0.96
2023-05-06T02:14:09.155Z,0.97
2023-05-06T02:15:09.388Z,0.99
2023-05-06T02:16:09.234Z,0.97
2023-05-06T02:17:09.170Z,0.97
2023-05-06T02:18:09.165Z,0.95
2023-05-06T02:19:09.168Z,0.97
2023-05-06T02:20:09.178Z,0.96
2023-05-06T02:21:09.214Z,0.95
2023-05-06T02:22:09.207Z,0.96
2023-05-06T02:23:09.193Z,0.96
2023-05-06T02:24:09.204Z,0.97
2023-05-06T02:26:09.224Z,0.94
2023-05-06T02:27:09.259Z,0.94
2023-05-06T02:28:09.235Z,0.99
2023-05-06T02:29:09.232Z,0.99
2023-05-06T02:30:09.349Z,0.95
2023-05-06T02:31:09.235Z,0.95
2023-05-06T02:32:09.256Z,0.95
2023-05-06T02:33:09.268Z,0.94
2023-05-06T02:34:09.283Z,0.97
2023-05-06T02:35:09.454Z,0.95
2023-05-06T02:36:09.289Z,0.95
2023-05-06T02:37:09.292Z,0.94
2023-05-06T02:38:09.257Z,0.94
2023-05-06T02:39:09.305Z,0.96
2023-05-06T02:40:09.312Z,0.95
2023-05-06T02:41:09.306Z,0.93
2023-05-06T02:42:09.354Z,0.95
2023-05-06T02:43:09.334Z,0.94
2023-05-06T02:44:09.356Z,0.94
2023-05-06T02:45:09.558Z,0.92
2023-05-06T02:46:09.420Z,0.93
2023-05-06T02:47:09.345Z,0.94
2023-05-06T02:48:09.367Z,0.91
2023-05-06T02:49:09.332Z,0.92
2023-05-06T02:50:09.371Z,0.91
2023-05-06T02:51:09.353Z,0.95
2023-05-06T02:52:09.377Z,0.91
2023-05-06T02:53:09.345Z,0.95
2023-05-06T02:54:09.316Z,0.93
2023-05-06T02:55:09.437Z,0.94
2023-05-06T02:56:09.344Z,0.93
2023-05-06T02:57:09.333Z,0.91
2023-05-06T02:58:09.344Z,0.93
2023-05-06T02:59:09.354Z,0.93
2023-05-06T03:00:09.323Z,0.93
2023-05-06T03:01:09.388Z,0.93
2023-05-06T03:02:09.386Z,0.95
2023-05-06T03:03:09.399Z,0.92
2023-05-06T03:04:09.396Z,0.92
2023-05-06T03:05:09.574Z,0.89
2023-05-06T03:06:09.357Z,0.94
2023-05-06T03:07:09.386Z,0.91
2023-05-06T03:08:09.373Z,0.89
2023-05-06T03:09:09.379Z,0.90
2023-05-06T03:10:09.394Z,0.89
2023-05-06T03:11:09.351Z,0.93
2023-05-06T03:12:09.382Z,0.94
2023-05-06T03:13:09.474Z,0.91
2023-05-06T03:14:09.356Z,0.89
2023-05-06T03:15:09.678Z,0.91
2023-05-06T03:16:09.425Z,0.89
2023-05-06T03:17:09.366Z,0.91
2023-05-06T03:18:09.475Z,0.93
2023-05-06T03:19:09.395Z,0.89
2023-05-06T03:20:09.371Z,0.93
2023-05-06T03:21:09.408Z,0.88
2023-05-06T03:22:09.357Z,0.89
2023-05-06T03:23:09.363Z,0.87
2023-05-06T03:24:09.359Z,0.92
2023-05-06T03:25:09.460Z,0.89
2023-05-06T03:26:09.348Z,0.89
2023-05-06T03:27:09.334Z,0.91
2023-05-06T03:28:09.334Z,0.90
2023-05-06T03:29:09.353Z,0.89
2023-05-06T03:30:09.364Z,0.90
2023-05-06T03:31:09.381Z,0.90
2023-05-06T03:32:09.326Z,0.87
2023-05-06T03:33:09.334Z,0.87
2023-05-06T03:34:10.332Z,0.89
2023-05-06T03:35:09.489Z,0.88
2023-05-06T03:36:09.407Z,0.90
2023-05-06T03:37:09.292Z,0.89
2023-05-06T03:38:09.291Z,0.87
2023-05-06T03:39:09.266Z,0.88
2023-05-06T03:40:09.298Z,0.87
2023-05-06T03:41:09.285Z,0.87
2023-05-06T03:42:09.934Z,0.86
2023-05-06T03:43:09.252Z,0.89
2023-05-06T03:44:09.254Z,0.88
2023-05-06T03:45:09.450Z,0.90
2023-05-06T03:46:09.282Z,0.91
2023-05-06T03:47:09.243Z,0.88
2023-05-06T03:48:09.280Z,0.88
2023-05-06T03:49:09.224Z,0.85
2023-05-06T03:50:09.266Z,0.86
2023-05-06T03:51:10.194Z,0.88
2023-05-06T03:52:09.241Z,0.86
2023-05-06T03:53:09.197Z,0.86
2023-05-06T03:54:09.234Z,0.88
2023-05-06T03:55:09.356Z,0.88
2023-05-06T03:56:09.220Z,0.87
2023-05-06T03:57:09.215Z,0.86
2023-05-06T03:58:09.181Z,0.90
2023-05-06T03:59:09.212Z,0.86
2023-05-06T04:00:09.170Z,0.88
2023-05-06T04:01:09.194Z,0.86
2023-05-06T04:02:09.229Z,0.86
2023-05-06T04:03:09.250Z,0.85
2023-05-06T04:04:09.274Z,0.89
2023-05-06T04:05:09.347Z,0.84
2023-05-06T04:06:09.177Z,0.91
2023-05-06T04:07:09.205Z,0.87
2023-05-06T04:08:09.179Z,0.86
2023-05-06T04:09:09.172Z,0.86
2023-05-06T04:10:09.157Z,0.87
2023-05-06T04:11:09.192Z,0.86
2023-05-06T04:12:09.170Z,0.85
2023-05-06T04:13:09.234Z,0.86
2023-05-06T04:14:09.154Z,0.87
2023-05-06T04:15:09.431Z,0.85
2023-05-06T04:16:09.189Z,0.86
2023-05-06T04:17:09.134Z,0.86
2023-05-06T04:18:09.191Z,0.89
2023-05-06T04:19:09.124Z,0.86
2023-05-06T04:20:09.185Z,0.83
2023-05-06T04:21:09.135Z,0.84
2023-05-06T04:22:09.138Z,0.86
2023-05-06T04:23:09.123Z,0.82
2023-05-06T04:24:09.140Z,0.83
2023-05-06T04:25:09.302Z,0.83
2023-05-06T04:26:09.110Z,0.83
2023-05-06T04:27:09.127Z,0.86
2023-05-06T04:28:09.089Z,0.82
2023-05-06T04:29:09.124Z,0.84
2023-05-06T04:30:09.109Z,0.84
2023-05-06T04:31:09.127Z,0.83
2023-05-06T04:32:09.256Z,0.83
2023-05-06T04:33:09.191Z,0.85
2023-05-06T04:34:09.097Z,0.83
2023-05-06T04:35:09.287Z,0.84
2023-05-06T04:36:09.101Z,0.85
2023-05-06T04:37:09.089Z,0.82
2023-05-06T04:38:09.176Z,0.84
2023-05-06T04:39:09.101Z,0.83
2023-05-06T04:40:09.151Z,0.81
2023-05-06T04:41:09.113Z,0.81
2023-05-06T04:42:09.103Z,0.81
2023-05-06T04:43:09.082Z,0.83
2023-05-06T04:44:09.103Z,0.84
2023-05-06T04:45:09.293Z,0.84
2023-05-06T04:46:09.083Z,0.81
2023-05-06T04:47:09.109Z,0.84
2023-05-06T04:48:09.091Z,0.82
2023-05-06T04:49:10.814Z,0.84
2023-05-06T04:50:09.096Z,0.85
2023-05-06T04:51:09.065Z,0.84
2023-05-06T04:52:09.029Z,0.82
2023-05-06T04:53:09.038Z,0.79
2023-05-06T04:54:09.052Z,0.84
2023-05-06T04:55:09.350Z,0.82
2023-05-06T04:56:09.007Z,0.84
2023-05-06T04:57:09.003Z,0.81
2023-05-06T04:58:09.017Z,0.84
2023-05-06T04:59:09.004Z,0.82
2023-05-06T05:00:09.218Z,0.81
2023-05-06T05:01:09.056Z,0.85
2023-05-06T05:02:09.018Z,0.81
2023-05-06T05:03:09.057Z,0.80
2023-05-06T05:04:08.947Z,0.81
2023-05-06T05:05:09.272Z,0.81
2023-05-06T05:06:08.975Z,0.81
2023-05-06T05:07:08.934Z,0.79
2023-05-06T05:08:08.916Z,0.81
2023-05-06T05:09:08.931Z,0.81
2023-05-06T05:10:08.987Z,0.82
2023-05-06T05:11:08.923Z,0.83
2023-05-06T05:12:08.914Z,0.82
2023-05-06T05:13:08.963Z,0.84
2023-05-06T05:14:08.899Z,0.82
2023-05-06T05:15:09.258Z,0.79
2023-05-06T05:16:08.882Z,0.82
2023-05-06T05:17:08.978Z,0.83
2023-05-06T05:18:09.007Z,0.79
2023-05-06T05:19:09.504Z,0.80
2023-05-06T05:20:08.842Z,0.82
2023-05-06T05:21:08.819Z,0.80
2023-05-06T05:22:08.810Z,0.78
2023-05-06T05:23:08.814Z,0.81
2023-05-06T05:24:08.822Z,0.79
2023-05-06T05:25:08.875Z,0.77
2023-05-06T05:26:08.866Z,0.79
2023-05-06T05:27:08.784Z,0.82
2023-05-06T05:28:08.762Z,0.80
2023-05-06T05:29:08.790Z,0.79
2023-05-06T05:30:08.763Z,0.80
2023-05-06T05:31:10.490Z,0.76
2023-05-06T05:32:08.741Z,0.81
2023-05-06T05:33:08.863Z,0.79
2023-05-06T05:34:08.726Z,0.80
2023-05-06T05:35:08.922Z,0.80
2023-05-06T05:36:08.747Z,0.81
2023-05-06T05:37:08.701Z,0.81
2023-05-06T05:38:08.733Z,0.77
2023-05-06T05:39:08.712Z,0.81
2023-05-06T05:40:08.685Z,0.78
2023-05-06T05:41:08.682Z,0.79
2023-05-06T05:42:08.667Z,0.77
2023-05-06T05:43:08.658Z,0.78
2023-05-06T05:44:08.691Z,0.77
2023-05-06T05:45:08.870Z,0.80
2023-05-06T05:46:08.650Z,0.77
2023-05-06T05:47:08.631Z,0.77
2023-05-06T05:48:08.641Z,0.77
2023-05-06T05:49:08.637Z,0.78
2023-05-06T05:50:08.642Z,0.77
2023-05-06T05:51:08.638Z,0.77
2023-05-06T05:52:08.642Z,0.80
2023-05-06T05:53:08.593Z,0.81
2023-05-06T05:54:08.581Z,0.78
2023-05-06T05:55:08.692Z,0.78
2023-05-06T05:56:08.593Z,0.77
2023-05-06T05:57:08.601Z,0.80
2023-05-06T05:58:08.575Z,0.79
2023-05-06T05:59:08.571Z,0.81
2023-05-06T06:00:08.550Z,0.76
2023-05-06T06:01:08.563Z,0.77
2023-05-06T06:02:08.545Z,0.75
2023-05-06T06:03:08.622Z,0.77
2023-05-06T06:04:09.445Z,0.75
2023-05-06T06:05:08.796Z,0.74
2023-05-06T06:06:08.533Z,0.76
2023-05-06T06:07:08.495Z,0.77
2023-05-06T06:08:08.481Z,0.76
2023-05-06T06:09:08.465Z,0.75
2023-05-06T06:10:08.476Z,0.76
2023-05-06T06:11:08.494Z,0.74
2023-05-06T06:12:08.446Z,0.77
2023-05-06T06:13:08.592Z,0.74
2023-05-06T06:14:08.525Z,0.75
2023-05-06T06:15:08.714Z,0.74
2023-05-06T06:16:08.640Z,0.75
2023-05-06T06:17:08.483Z,0.76
2023-05-06T06:18:08.499Z,0.77
2023-05-06T06:19:08.452Z,0.75
2023-05-06T06:20:08.425Z,0.76
2023-05-06T06:21:08.413Z,0.75
2023-05-06T06:22:08.396Z,0.74
2023-05-06T06:23:08.376Z,0.75
2023-05-06T06:24:08.368Z,0.74
2023-05-06T06:25:08.447Z,0.74
2023-05-06T06:26:09.140Z,0.72
2023-05-06T06:27:08.365Z,0.75
2023-05-06T06:28:08.322Z,0.73
2023-05-06T06:29:08.337Z,0.74
2023-05-06T06:30:08.415Z,0.74
2023-05-06T06:31:08.366Z,0.74
2023-05-06T06:32:08.413Z,0.75
2023-05-06T06:33:08.318Z,0.74
2023-05-06T06:34:08.294Z,0.74
2023-05-06T06:35:08.508Z,0.75
2023-05-06T06:36:08.277Z,0.74
2023-05-06T06:37:08.302Z,0.75
2023-05-06T06:38:08.276Z,0.73
2023-05-06T06:39:08.272Z,0.72
2023-05-06T06:40:08.269Z,0.75
2023-05-06T06:41:08.268Z,0.73
2023-05-06T06:42:08.257Z,0.71
2023-05-06T06:43:08.227Z,0.74
2023-05-06T06:44:08.232Z,0.78
2023-05-06T06:45:08.443Z,0.74
2023-05-06T06:46:08.360Z,0.73
2023-05-06T06:47:08.223Z,0.74
2023-05-06T06:48:08.255Z,0.75
2023-05-06T06:49:08.210Z,0.73
2023-05-06T06:50:08.208Z,0.72
2023-05-06T06:51:08.187Z,0.75
2023-05-06T06:52:08.155Z,0.74
2023-05-06T06:53:08.177Z,0.73
2023-05-06T06:54:08.182Z,0.72
2023-05-06T06:55:08.362Z,0.73
2023-05-06T06:56:08.174Z,0.74
2023-05-06T06:57:08.137Z,0.73
2023-05-06T06:58:08.139Z,0.72
2023-05-06T06:59:08.150Z,0.74
2023-05-06T07:00:08.175Z,0.71
2023-05-06T07:01:08.168Z,0.72
2023-05-06T07:02:08.142Z,0.75
2023-05-06T07:03:08.150Z,0.73
2023-05-06T07:04:08.109Z,0.74
2023-05-06T07:05:08.268Z,0.73
2023-05-06T07:06:08.094Z,0.73
2023-05-06T07:07:08.094Z,0.74
2023-05-06T07:08:08.101Z,0.72
2023-05-06T07:09:08.099Z,0.76
2023-05-06T07:10:08.103Z,0.73
2023-05-06T07:11:08.084Z,0.74
2023-05-06T07:12:08.128Z,0.73
2023-05-06T07:13:08.120Z,0.72
2023-05-06T07:14:08.118Z,0.72
2023-05-06T07:15:08.235Z,0.71
2023-05-06T07:16:08.128Z,0.73
2023-05-06T07:17:08.113Z,0.73
2023-05-06T07:18:08.134Z,0.72
2023-05-06T07:19:08.135Z,0.72
2023-05-06T07:20:08.193Z,0.75
2023-05-06T07:21:08.179Z,0.72
2023-05-06T07:22:08.155Z,0.71
2023-05-06T07:23:08.196Z,0.72
2023-05-06T07:24:08.214Z,0.73
2023-05-06T07:25:08.278Z,0.73
2023-05-06T07:26:08.219Z,0.72
2023-05-06T07:27:08.252Z,0.71
2023-05-06T07:28:08.253Z,0.72
2023-05-06T07:29:08.279Z,0.72
2023-05-06T07:30:08.313Z,0.71
2023-05-06T07:31:08.351Z,0.71
2023-05-06T07:32:08.323Z,0.71
2023-05-06T07:33:08.365Z,0.71
2023-05-06T07:34:08.331Z,0.71
2023-05-06T07:35:08.481Z,0.71
2023-05-06T07:36:08.371Z,0.71
2023-05-06T07:37:08.426Z,0.70
2023-05-06T07:38:08.445Z,0.70
2023-05-06T07:39:08.452Z,0.69
2023-05-06T07:40:08.499Z,0.70
2023-05-06T07:41:08.554Z,0.69
2023-05-06T07:42:08.619Z,0.69
2023-05-06T07:43:08.616Z,0.69
2023-05-06T07:44:08.632Z,0.69
2023-05-06T07:45:08.851Z,0.69
2023-05-06T07:46:08.735Z,0.70
2023-05-06T07:47:08.860Z,0.71
2023-05-06T07:48:08.861Z,0.70
2023-05-06T07:49:08.860Z,0.70
2023-05-06T07:50:09.032Z,0.69
2023-05-06T07:51:08.980Z,0.70
2023-05-06T07:52:09.036Z,0.71
2023-05-06T07:53:09.038Z,0.69
2023-05-06T07:54:09.106Z,0.70
2023-05-06T07:55:09.487Z,0.69
2023-05-06T07:56:09.224Z,0.70
2023-05-06T07:57:09.274Z,0.70
2023-05-06T07:58:09.340Z,0.68
2023-05-06T07:59:09.390Z,0.70
2023-05-06T08:00:09.447Z,0.70
2023-05-06T08:01:09.497Z,0.68
2023-05-06T08:02:09.607Z,0.70
2023-05-06T08:03:09.806Z,0.69
2023-05-06T08:04:09.760Z,0.68
2023-05-06T08:05:09.910Z,0.67
2023-05-06T08:06:09.853Z,0.69
2023-05-06T08:07:09.854Z,0.69
2023-05-06T08:08:09.920Z,0.68
2023-05-06T08:09:11.373Z,0.68
2023-05-06T08:10:09.967Z,0.69
2023-05-06T08:11:09.989Z,0.69
2023-05-06T08:12:09.960Z,0.69
2023-05-06T08:13:10.029Z,0.68
2023-05-06T08:14:09.915Z,0.67
2023-05-06T08:15:10.107Z,0.68
2023-05-06T08:16:09.964Z,0.68
2023-05-06T08:17:09.920Z,0.70
2023-05-06T08:18:20.937Z,0.68
2023-05-06T08:19:10.931Z,0.68
2023-05-06T08:20:09.896Z,0.68
2023-05-06T08:21:09.874Z,0.68
2023-05-06T08:22:09.930Z,0.69
2023-05-06T08:23:09.864Z,0.69
2023-05-06T08:24:09.855Z,0.68
2023-05-06T08:25:10.072Z,0.69
2023-05-06T08:26:09.859Z,0.68
2023-05-06T08:27:09.841Z,0.69
2023-05-06T08:28:09.893Z,0.68
2023-05-06T08:29:09.964Z,0.68
2023-05-06T08:30:10.072Z,0.66
2023-05-06T08:31:10.207Z,0.69
2023-05-06T08:32:10.221Z,0.68
2023-05-06T08:33:10.235Z,0.67
2023-05-06T08:34:10.267Z,0.66
2023-05-06T08:35:10.529Z,0.68
2023-05-06T08:36:10.362Z,0.68
2023-05-06T08:37:10.481Z,0.68
2023-05-06T08:38:10.616Z,0.67
2023-05-06T08:39:10.598Z,0.65
2023-05-06T08:40:10.684Z,0.66
2023-05-06T08:41:10.671Z,0.69
2023-05-06T08:42:10.745Z,0.66
2023-05-06T08:43:10.815Z,0.68
2023-05-06T08:44:10.859Z,0.66
2023-05-06T08:45:11.079Z,0.66
2023-05-06T08:46:11.014Z,0.66
2023-05-06T08:47:11.058Z,0.66
2023-05-06T08:48:11.115Z,0.67
2023-05-06T08:49:11.186Z,0.66
2023-05-06T08:50:11.274Z,0.66
2023-05-06T08:51:11.320Z,0.65
2023-05-06T08:52:11.356Z,0.67
2023-05-06T08:53:11.462Z,0.65
2023-05-06T08:54:11.604Z,0.68
2023-05-06T08:55:11.757Z,0.67
2023-05-06T08:56:11.638Z,0.66
2023-05-06T08:57:12.568Z,0.66
2023-05-06T08:58:11.704Z,0.65
2023-05-06T08:59:11.785Z,0.66
2023-05-06T09:00:11.863Z,0.65
2023-05-06T09:01:11.935Z,0.66
2023-05-06T09:02:11.967Z,0.66
2023-05-06T09:03:12.034Z,0.66
2023-05-06T09:04:12.089Z,0.66
2023-05-06T09:05:12.403Z,0.67
2023-05-06T09:06:12.172Z,0.66
2023-05-06T09:07:12.232Z,0.66
2023-05-06T09:08:12.294Z,0.66
2023-05-06T09:09:12.373Z,0.65
2023-05-06T09:10:12.936Z,0.65
2023-05-06T09:11:12.435Z,0.65
2023-05-06T09:12:12.519Z,0.66
2023-05-06T09:13:12.596Z,0.66
2023-05-06T09:14:12.655Z,0.67
2023-05-06T09:15:12.931Z,0.66
2023-05-06T09:16:12.797Z,0.67
2023-05-06T09:17:12.868Z,0.66
2023-05-06T09:18:12.987Z,0.67
2023-05-06T09:19:12.949Z,0.67
2023-05-06T09:20:12.995Z,0.65
2023-05-06T09:21:13.047Z,0.66
2023-05-06T09:22:13.097Z,0.65
2023-05-06T09:23:13.163Z,0.66
2023-05-06T09:24:13.244Z,0.66
2023-05-06T09:25:13.395Z,0.64
2023-05-06T09:26:13.404Z,0.65
2023-05-06T09:27:15.180Z,0.67
2023-05-06T09:28:13.435Z,0.67
2023-05-06T09:29:13.550Z,0.66
2023-05-06T09:30:13.612Z,0.66
2023-05-06T09:31:13.684Z,0.66
2023-05-06T09:32:13.716Z,0.65
2023-05-06T09:33:13.808Z,0.65
2023-05-06T09:34:13.803Z,0.65
2023-05-06T09:35:14.065Z,0.65
2023-05-06T09:36:13.922Z,0.64
2023-05-06T09:37:13.956Z,0.65
2023-05-06T09:38:14.014Z,0.64
2023-05-06T09:39:14.100Z,0.64
2023-05-06T09:40:14.152Z,0.65
2023-05-06T09:41:14.211Z,0.64
2023-05-06T09:42:14.496Z,0.64
2023-05-06T09:43:14.328Z,0.64
2023-05-06T09:44:14.421Z,0.66
2023-05-06T09:45:14.469Z,0.66
2023-05-06T09:46:14.591Z,0.64
2023-05-06T09:47:14.560Z,0.65
2023-05-06T09:48:14.644Z,0.65
2023-05-06T09:49:14.676Z,0.63
2023-05-06T09:50:14.741Z,0.63
2023-05-06T09:51:14.781Z,0.64
2023-05-06T09:52:14.884Z,0.63
2023-05-06T09:53:14.947Z,0.63
2023-05-06T09:54:15.000Z,0.65
2023-05-06T09:55:15.057Z,0.64
2023-05-06T09:56:15.134Z,0.65
2023-05-06T09:57:15.171Z,0.65
2023-05-06T09:58:15.311Z,0.64
2023-05-06T09:59:15.868Z,0.64
2023-05-06T10:00:15.332Z,0.65
2023-05-06T10:01:25.154Z,0.64
2023-05-06T10:02:16.481Z,0.64
2023-05-06T10:03:15.532Z,0.64
2023-05-06T10:04:15.489Z,0.65
2023-05-06T10:05:15.781Z,0.62
2023-05-06T10:06:15.384Z,0.64
2023-05-06T10:07:15.381Z,0.63
2023-05-06T10:08:15.356Z,0.64
2023-05-06T10:09:15.367Z,0.63
2023-05-06T10:10:15.349Z,0.63
2023-05-06T10:11:15.352Z,0.63
2023-05-06T10:12:15.379Z,0.63
2023-05-06T10:13:15.464Z,0.64
2023-05-06T10:14:15.553Z,0.63
2023-05-06T10:15:15.537Z,0.63
2023-05-06T10:16:15.889Z,0.63
2023-05-06T10:17:15.664Z,0.62
2023-05-06T10:18:15.686Z,0.63
2023-05-06T10:19:15.731Z,0.62
2023-05-06T10:20:15.813Z,0.63
2023-05-06T10:21:15.826Z,0.62
2023-05-06T10:22:15.919Z,0.64
2023-05-06T10:23:15.954Z,0.63
2023-05-06T10:24:16.016Z,0.63
2023-05-06T10:25:16.063Z,0.63
2023-05-06T10:26:16.105Z,0.63
2023-05-06T10:27:16.154Z,0.63
2023-05-06T10:28:18.330Z,0.62
2023-05-06T10:29:17.182Z,0.62
2023-05-06T10:30:16.167Z,0.62
2023-05-06T10:31:16.210Z,0.63
2023-05-06T10:32:16.184Z,0.63
2023-05-06T10:33:16.152Z,0.63
2023-05-06T10:34:16.147Z,0.63
2023-05-06T10:35:16.133Z,0.62
2023-05-06T10:36:16.170Z,0.63
2023-05-06T10:37:16.127Z,0.62
2023-05-06T10:38:16.102Z,0.63
2023-05-06T10:39:16.112Z,0.63
2023-05-06T10:40:16.123Z,0.63
2023-05-06T10:41:16.166Z,0.63
2023-05-06T10:42:16.199Z,0.62
2023-05-06T10:43:16.258Z,0.61
2023-05-06T10:44:16.293Z,0.63
2023-05-06T10:45:16.326Z,0.63
2023-05-06T10:46:16.547Z,0.63
2023-05-06T10:47:16.424Z,0.63
2023-05-06T10:48:16.491Z,0.62
2023-05-06T10:49:16.508Z,0.63
2023-05-06T10:50:16.599Z,0.63
2023-05-06T10:51:16.649Z,0.61
2023-05-06T10:52:16.636Z,0.62
2023-05-06T10:53:16.691Z,0.63
2023-05-06T10:54:16.744Z,0.64
2023-05-06T10:55:16.789Z,0.61
2023-05-06T10:56:16.824Z,0.62
2023-05-06T10:57:16.835Z,0.62
2023-05-06T10:58:16.924Z,0.62
2023-05-06T10:59:16.959Z,0.62
2023-05-06T11:00:16.991Z,0.62
2023-05-06T11:01:17.033Z,0.63
2023-05-06T11:02:17.102Z,0.62
2023-05-06T11:03:17.176Z,0.62
2023-05-06T11:04:17.169Z,0.62
2023-05-06T11:05:17.216Z,0.61
2023-05-06T11:06:17.262Z,0.61
2023-05-06T11:07:17.316Z,0.64
2023-05-06T11:08:17.328Z,0.62
2023-05-06T11:09:17.365Z,0.63
2023-05-06T11:10:17.414Z,0.61
2023-05-06T11:11:17.475Z,0.61
2023-05-06T11:12:17.515Z,0.61
2023-05-06T11:13:17.655Z,0.60
2023-05-06T11:14:17.586Z,0.61
2023-05-06T11:15:17.621Z,0.62
2023-05-06T11:16:17.692Z,0.62
2023-05-06T11:17:17.716Z,0.61
2023-05-06T11:18:17.799Z,0.61
2023-05-06T11:19:17.799Z,0.61
2023-05-06T11:20:17.839Z,0.61
2023-05-06T11:21:17.863Z,0.60
2023-05-06T11:22:17.940Z,0.61
2023-05-06T11:23:17.958Z,0.62
2023-05-06T11:24:17.966Z,0.62
2023-05-06T11:25:18.018Z,0.62
2023-05-06T11:26:18.051Z,0.61
2023-05-06T11:27:18.080Z,0.61
2023-05-06T11:28:18.131Z,0.62
2023-05-06T11:29:18.168Z,0.61
2023-05-06T11:30:18.179Z,0.61
2023-05-06T11:31:18.284Z,0.60
2023-05-06T11:32:18.266Z,0.62
2023-05-06T11:33:18.353Z,0.62
2023-05-06T11:34:18.474Z,0.62
2023-05-06T11:35:18.417Z,0.61
2023-05-06T11:36:18.475Z,0.61
2023-05-06T11:37:18.469Z,0.60
2023-05-06T11:38:18.529Z,0.61
2023-05-06T11:39:18.551Z,0.62
2023-05-06T11:40:18.587Z,0.61
2023-05-06T11:41:18.661Z,0.61
2023-05-06T11:42:18.692Z,0.61
2023-05-06T11:43:18.714Z,0.61
2023-05-06T11:44:18.755Z,0.61
2023-05-06T11:45:18.828Z,0.61
2023-05-06T11:46:18.904Z,0.60
2023-05-06T11:47:18.869Z,0.60
2023-05-06T11:48:18.926Z,0.62
2023-05-06T11:49:18.958Z,0.61
2023-05-06T11:50:19.073Z,0.61
2023-05-06T11:51:19.023Z,0.62
2023-05-06T11:52:19.070Z,0.61
2023-05-06T11:53:19.176Z,0.61
2023-05-06T11:54:19.145Z,0.61
2023-05-06T11:55:19.149Z,0.62
2023-05-06T11:56:19.172Z,0.62
2023-05-06T11:57:19.204Z,0.60
2023-05-06T11:58:19.259Z,0.61
2023-05-06T11:59:19.303Z,0.60
2023-05-06T12:00:19.320Z,0.61
2023-05-06T12:01:19.367Z,0.60
2023-05-06T12:02:19.445Z,0.60
2023-05-06T12:03:19.566Z,0.60
2023-05-06T12:04:19.445Z,0.60
2023-05-06T12:05:19.551Z,0.61
2023-05-06T12:06:19.516Z,0.61
2023-05-06T12:07:19.543Z,0.60
2023-05-06T12:08:26.881Z,0.60
2023-05-06T12:09:20.538Z,0.60
2023-05-06T12:10:19.541Z,0.60
2023-05-06T12:11:19.531Z,0.61
2023-05-06T12:12:19.520Z,0.61
2023-05-06T12:13:19.670Z,0.61
2023-05-06T12:14:19.545Z,0.61
2023-05-06T12:15:19.516Z,0.61
2023-05-06T12:16:19.507Z,0.60
2023-05-06T12:17:19.509Z,0.61
2023-05-06T12:18:19.474Z,0.61
2023-05-06T12:19:19.486Z,0.62
2023-05-06T12:20:19.442Z,0.61
2023-05-06T12:21:19.493Z,0.60
2023-05-06T12:22:19.610Z,0.61
2023-05-06T12:23:19.428Z,0.61
2023-05-06T12:24:19.501Z,0.60
2023-05-06T12:25:19.457Z,0.61
2023-05-06T12:26:19.429Z,0.60
2023-05-06T12:27:19.428Z,0.60
2023-05-06T12:28:19.441Z,0.61
2023-05-06T12:29:19.433Z,0.61
2023-05-06T12:30:19.494Z,0.61
2023-05-06T12:31:19.614Z,0.61
2023-05-06T12:32:19.535Z,0.61
2023-05-06T12:33:19.538Z,0.61
2023-05-06T12:34:19.581Z,0.61
2023-05-06T12:35:19.585Z,0.61
2023-05-06T12:36:19.760Z,0.61
2023-05-06T12:37:19.665Z,0.61
2023-05-06T12:38:19.720Z,0.62
2023-05-06T12:39:19.723Z,0.62
2023-05-06T12:40:19.726Z,0.61
2023-05-06T12:41:19.745Z,0.61
2023-05-06T12:42:19.744Z,0.61
2023-05-06T12:43:19.756Z,0.60
2023-05-06T12:44:19.809Z,0.60
2023-05-06T12:45:19.844Z,0.62
2023-05-06T12:46:19.967Z,0.60
2023-05-06T12:47:19.855Z,0.60
2023-05-06T12:48:19.878Z,0.61
2023-05-06T12:49:19.881Z,0.61
2023-05-06T12:50:19.926Z,0.60
2023-05-06T12:51:19.974Z,0.61
2023-05-06T12:52:19.979Z,0.61
2023-05-06T12:53:20.003Z,0.62
2023-05-06T12:54:20.235Z,0.62
2023-05-06T12:55:20.004Z,0.61
2023-05-06T12:56:20.048Z,0.62
2023-05-06T12:57:20.059Z,0.61
2023-05-06T12:58:20.096Z,0.62
2023-05-06T12:59:20.102Z,0.61
2023-05-06T13:00:20.139Z,0.61
2023-05-06T13:01:20.178Z,0.61
2023-05-06T13:02:20.211Z,0.60
2023-05-06T13:03:20.294Z,0.63
2023-05-06T13:04:20.151Z,0.61
2023-05-06T13:05:20.210Z,0.61
2023-05-06T13:06:20.236Z,0.62
2023-05-06T13:07:20.239Z,0.61
2023-05-06T13:08:20.256Z,0.62
2023-05-06T13:09:20.254Z,0.61
2023-05-06T13:10:20.336Z,0.61
2023-05-06T13:11:20.328Z,0.61
2023-05-06T13:12:20.320Z,0.62
2023-05-06T13:13:20.382Z,0.62
2023-05-06T13:14:20.364Z,0.62
2023-05-06T13:15:20.383Z,0.62
2023-05-06T13:16:20.416Z,0.61
2023-05-06T13:17:20.501Z,0.62
2023-05-06T13:18:20.412Z,0.61
2023-05-06T13:19:31.738Z,0.62
2023-05-06T13:20:21.448Z,0.62